Flight Track Log - Related Links

Times and Time Zones

All times are in EDT time to prevent confusion due to time zone crossing. See the N51EM flight status page for this flight to view local times or setup timezone preferences in your user account.

Time Position Orientation Groundspeed Altitude Reporting Facility
EDT Latitude Longitude Course Direction KTS MPH feet Rate Location/Type
Mon 09:19:28 AM 40.5950 -75.5758 262° West 266 306 4,300  Level New York Center
Mon 09:20:28 AM 40.5853 -75.6625 262° West 261 300 7,200 1,800 Climbing New York Center
Mon 09:21:28 AM 40.5358 -75.7464 232° Southwest 285 328 7,900 1,000 Climbing New York Center
Mon 09:22:28 AM 40.4786 -75.8214 225° Southwest 290 334 9,200 2,000 Climbing New York Center
Mon 09:23:28 AM 40.4144 -75.8578 203° Southwest 289 333 11,900 2,750 Climbing New York Center
Mon 09:24:28 AM 40.3267 -75.8622 182° South 284 327 14,700 2,400 Climbing New York Center
Mon 09:25:28 AM 40.2431 -75.8694 184° South 298 343 16,700 2,000 Climbing New York Center
Mon 09:26:28 AM 40.1644 -75.9019 198° South 306 352 18,700 1,650 Climbing New York Center
Mon 09:27:28 AM 40.0967 -75.9728 219° Southwest 301 346 20,000 1,850 Climbing New York Center
Mon 09:28:28 AM 40.0311 -76.0439 220° Southwest 315 362 22,400 1,600 Climbing New York Center
Mon 09:29:28 AM 39.9656 -76.1119 219° Southwest 310 357 23,200 1,550 Climbing New York Center
Mon 09:30:28 AM 39.9106 -76.1756 222° Southwest 310 357 25,500 1,750 Climbing New York Center
Mon 09:31:28 AM 39.8344 -76.2425 214° Southwest 321 369 26,700 1,250 Climbing New York Center
Mon 09:32:28 AM 39.7547 -76.2986 208° Southwest 332 382 28,000 1,200 Climbing New York Center
Mon 09:33:28 AM 39.6769 -76.3544 209° Southwest 332 382 29,100 1,050 Climbing New York Center
Mon 09:34:28 AM 39.6144 -76.4411 227° Southwest 327 376 30,100 955 Climbing New York Center
Mon 09:36:24 AM 39.4967 -76.6133 228° Southwest 335 386 31,900 644 Climbing Washington Center
Mon 09:37:25 AM 39.4314 -76.7039 227° Southwest 342 394 32,000 50 Climbing Washington Center
Mon 09:38:25 AM 39.3639 -76.7969 227° Southwest 347 399 32,000  Level Washington Center
Mon 09:39:25 AM 39.2878 -76.9056 228° Southwest 357 411 32,000  Level Washington Center
Mon 09:40:24 AM 39.2197 -77.0061 229° Southwest 362 417 32,000 50 Level Washington Center
Mon 09:41:24 AM 39.1519 -77.1039 228° Southwest 367 422 32,100 595 Climbing Washington Center
Mon 09:42:25 AM 39.0881 -77.2014 230° Southwest 367 422 33,200 885 Climbing Washington Center
Mon 09:43:26 AM 39.0222 -77.2961 228° Southwest 362 417 33,900 655 Climbing Washington Center
Mon 09:44:24 AM 38.9606 -77.3856 228° Southwest 356 410 34,500 555 Climbing Washington Center
Mon 09:45:25 AM 38.8944 -77.4694 225° Southwest 351 404 35,000 443 Climbing Washington Center
Mon 09:46:26 AM 38.8103 -77.5336 211° Southwest 351 404 35,400 504 Climbing Washington Center
Mon 09:47:24 AM 38.7300 -77.5956 211° Southwest 351 404 36,000 303 Climbing Washington Center
Mon 09:48:25 AM 38.6453 -77.6625 212° Southwest 351 404 36,000  Level Washington Center
Mon 09:49:24 AM 38.5650 -77.7264 212° Southwest 351 404 36,000  Level Washington Center
Mon 09:50:25 AM 38.4806 -77.7931 212° Southwest 356 410 36,000  Level Washington Center
Mon 09:51:26 AM 38.4042 -77.8517 211° Southwest 356 410 36,000  Level Washington Center
Mon 09:52:24 AM 38.3175 -77.9206 212° Southwest 361 415 36,000  Level Washington Center
Mon 09:53:24 AM 38.2286 -77.9864 210° Southwest 367 422 36,000  Level Washington Center
Mon 09:54:25 AM 38.1439 -78.0550 212° Southwest 367 422 36,000  Level Washington Center
Mon 09:55:26 AM 38.0569 -78.1233 212° Southwest 367 422 36,000  Level Washington Center
Mon 09:56:24 AM 37.9783 -78.1919 215° Southwest 360 414 36,000  Level Washington Center
Mon 09:57:25 AM 37.8908 -78.2758 217° Southwest 360 414 36,000  Level Washington Center
Mon 09:58:26 AM 37.8119 -78.3492 216° Southwest 360 414 36,000  Level Washington Center
Mon 09:59:24 AM 37.7331 -78.4225 216° Southwest 360 414 36,000  Level Washington Center
Mon 10:00:24 AM 37.6542 -78.4981 217° Southwest 355 409 36,000  Level Washington Center
Mon 10:01:25 AM 37.5772 -78.5711 217° Southwest 355 409 36,000  Level Washington Center
Mon 10:02:26 AM 37.5069 -78.6364 216° Southwest 355 409 36,000 50 Level Washington Center
Mon 10:03:24 AM 37.4300 -78.7092 217° Southwest 349 402 36,100 203 Climbing Washington Center
Mon 10:04:24 AM 37.3508 -78.7819 216° Southwest 349 402 36,400 1,950 Climbing Washington Center
Mon 10:05:24 AM 37.2736 -78.8544 217° Southwest 349 402 40,000 248 Climbing Washington Center
Mon 10:06:25 AM 37.1967 -78.9242 216° Southwest 349 402 36,900 -1,377 Descending Washington Center
Mon 10:07:26 AM 37.1131 -79.0039 217° Southwest 349 402 37,200 248 Climbing Washington Center
Mon 10:08:26 AM 37.0339 -79.0758 216° Southwest 349 402 37,400 305 Climbing Washington Center
Mon 10:09:24 AM 36.9608 -79.1453 217° Southwest 349 402 37,800 353 Climbing Washington Center
Mon 10:10:25 AM 36.8817 -79.2142 215° Southwest 349 402 38,100 248 Climbing Washington Center
Mon 10:11:25 AM 36.8086 -79.2836 217° Southwest 349 402 38,300 198 Climbing Washington Center
Mon 10:12:26 AM 36.7400 -79.3450 216° Southwest 349 402 38,500 202 Climbing Washington Center
Mon 10:13:24 AM 36.6647 -79.4139 216° Southwest 349 402 38,700 147 Climbing Washington Center
Mon 10:15:09 AM 36.5283 -79.5356 216° Southwest 355 409 38,900 218 Climbing Atlanta Center
Mon 10:16:09 AM 36.4536 -79.6044 217° Southwest 355 409 39,300 350 Climbing Atlanta Center
Mon 10:17:09 AM 36.3769 -79.6731 216° Southwest 350 403 39,600 300 Climbing Atlanta Center
Mon 10:18:09 AM 36.3022 -79.7442 217° Southwest 350 403 39,900 200 Climbing Atlanta Center
Mon 10:19:09 AM 36.2150 -79.8183 214° Southwest 350 403 40,000 50 Climbing Atlanta Center
Mon 10:20:09 AM 36.1403 -79.8864 216° Southwest 350 403 40,000  Level Atlanta Center
Mon 10:21:09 AM 36.0633 -79.9572 217° Southwest 350 403 40,000  Level Atlanta Center
Mon 10:22:09 AM 35.9756 -80.0103 206° Southwest 350 403 40,000  Level Atlanta Center
Mon 10:23:09 AM 35.8892 -80.0531 202° Southwest 358 412 40,000  Level Atlanta Center
Mon 10:24:09 AM 35.7928 -80.1014 202° Southwest 372 428 40,000  Level Atlanta Center
Mon 10:25:09 AM 35.7006 -80.1492 203° Southwest 372 428 40,000  Level Atlanta Center
Mon 10:26:09 AM 35.5936 -80.2053 203° Southwest 372 428 40,000  Level Atlanta Center
Mon 10:27:09 AM 35.4969 -80.2506 201° Southwest 372 428 40,000  Level Atlanta Center
Mon 10:28:09 AM 35.4150 -80.2928 203° Southwest 365 420 40,000  Level Atlanta Center
Mon 10:29:09 AM 35.3183 -80.3378 201° Southwest 365 420 40,000  Level Atlanta Center
Mon 10:30:09 AM 35.2217 -80.3853 202° Southwest 373 429 40,000  Level Atlanta Center
Mon 10:31:09 AM 35.1292 -80.4325 203° Southwest 365 420 40,000  Level Atlanta Center
Mon 10:32:49 AM 34.9675 -80.5089 201° Southwest 360 414 40,000  Level Jacksonville Center
Mon 10:33:49 AM 34.8725 -80.5569 203° Southwest 366 421 40,000  Level Jacksonville Center
Mon 10:34:49 AM 34.7794 -80.6025 202° Southwest 366 421 40,000  Level Jacksonville Center
Mon 10:35:49 AM 34.6822 -80.6481 201° Southwest 371 427 40,000  Level Jacksonville Center
Mon 10:36:49 AM 34.5872 -80.6958 202° Southwest 371 427 40,000  Level Jacksonville Center
Mon 10:37:49 AM 34.4919 -80.7436 202° Southwest 371 427 40,000  Level Jacksonville Center
Mon 10:38:49 AM 34.3947 -80.7889 201° Southwest 371 427 40,000  Level Jacksonville Center
Mon 10:39:49 AM 34.2975 -80.8314 200° South 376 433 40,000  Level Jacksonville Center
Mon 10:40:49 AM 34.2022 -80.8789 202° Southwest 376 433 40,000  Level Jacksonville Center
Mon 10:41:49 AM 34.1028 -80.9264 202° Southwest 376 433 40,000  Level Jacksonville Center
Mon 10:42:49 AM 34.0033 -80.9736 201° Southwest 382 440 40,000  Level Jacksonville Center
Mon 10:43:49 AM 33.9061 -81.0208 202° Southwest 382 440 40,000  Level Jacksonville Center
Mon 10:44:49 AM 33.8086 -81.0631 200° South 382 440 40,000  Level Jacksonville Center
Mon 10:45:49 AM 33.7092 -81.1125 202° Southwest 382 440 40,000  Level Jacksonville Center
Mon 10:46:49 AM 33.6117 -81.1567 201° Southwest 387 445 40,000  Level Jacksonville Center
Mon 10:47:49 AM 33.5119 -81.2036 201° Southwest 387 445 40,000  Level Jacksonville Center
Mon 10:48:49 AM 33.4125 -81.2503 201° Southwest 387 445 40,000  Level Jacksonville Center
Mon 10:49:49 AM 33.3131 -81.2969 201° Southwest 392 451 40,000  Level Jacksonville Center
Mon 10:50:49 AM 33.2153 -81.3408 201° Southwest 392 451 40,000  Level Jacksonville Center
Mon 10:51:49 AM 33.1136 -81.3822 199° South 392 451 40,000  Level Jacksonville Center
Mon 10:52:49 AM 33.0056 -81.4161 195° South 397 457 40,000  Level Jacksonville Center
Mon 10:53:49 AM 32.8972 -81.4428 192° South 397 457 40,000  Level Jacksonville Center
Mon 10:54:49 AM 32.7889 -81.4692 192° South 397 457 40,000  Level Jacksonville Center
Mon 10:55:49 AM 32.6725 -81.5006 193° South 390 449 40,000  Level Jacksonville Center
Mon 10:56:49 AM 32.5767 -81.5267 193° South 390 449 40,000  Level Jacksonville Center
Mon 10:57:49 AM 32.4558 -81.5581 192° South 395 455 40,000  Level Jacksonville Center
Mon 10:58:49 AM 32.3581 -81.5867 194° South 401 461 40,000  Level Jacksonville Center
Mon 10:59:49 AM 32.2375 -81.6178 192° South 406 467 40,000  Level Jacksonville Center
Mon 11:00:49 AM 32.1269 -81.6464 192° South 406 467 40,000  Level Jacksonville Center
Mon 11:01:49 AM 32.0269 -81.6697 191° South 403 464 40,000  Level Jacksonville Center
Mon 11:02:49 AM 31.9061 -81.7008 192° South 413 475 40,000  Level Jacksonville Center
Mon 11:03:49 AM 31.8083 -81.7264 193° South 408 470 40,000  Level Jacksonville Center
Mon 11:04:49 AM 31.6875 -81.7572 192° South 408 470 40,000  Level Jacksonville Center
Mon 11:05:49 AM 31.5750 -81.7856 192° South 415 478 40,000  Level Jacksonville Center
Mon 11:06:49 AM 31.4772 -81.8108 192° South 405 466 40,000  Level Jacksonville Center
Mon 11:07:49 AM 31.3625 -81.8392 192° South 405 466 40,000  Level Jacksonville Center
Mon 11:08:49 AM 31.2522 -81.8694 193° South 411 473 40,000  Level Jacksonville Center
Mon 11:09:49 AM 31.1375 -81.8950 191° South 411 473 40,000  Level Jacksonville Center
Mon 11:10:49 AM 31.0269 -81.9278 194° South 411 473 40,000  Level Jacksonville Center
Mon 11:11:49 AM 30.9144 -81.9556 192° South 411 473 40,000  Level Jacksonville Center
Mon 11:12:49 AM 30.8000 -81.9833 192° South 411 473 40,000  Level Jacksonville Center
Mon 11:13:49 AM 30.6872 -82.0133 193° South 411 473 40,000  Level Jacksonville Center
Mon 11:14:49 AM 30.5728 -82.0408 192° South 411 473 40,000  Level Jacksonville Center
Mon 11:15:49 AM 30.4600 -82.0611 189° South 411 473 40,000  Level Jacksonville Center
Mon 11:16:49 AM 30.3456 -82.0933 194° South 411 473 40,000  Level Jacksonville Center
Mon 11:17:49 AM 30.2286 -82.1208 191° South 416 479 40,000 -400 Level Jacksonville Center
Mon 11:18:49 AM 30.1097 -82.1169 178° South 421 484 39,200 -1,250 Descending Jacksonville Center
Mon 11:19:49 AM 29.9800 -82.0942 171° South 427 491 37,500 -1,550 Descending Jacksonville Center
Mon 11:20:49 AM 29.8589 -82.0686 170° South 432 497 36,100 -1,200 Descending Jacksonville Center
Mon 11:21:49 AM 29.7481 -82.0433 169° South 442 509 35,100 -500 Descending Jacksonville Center
Mon 11:22:49 AM 29.6164 -82.0206 171° South 448 516 35,100  Level Jacksonville Center
Mon 11:23:49 AM 29.4972 -82.0003 172° South 448 516 35,100  Level Jacksonville Center
Mon 11:24:49 AM 29.3781 -81.9728 169° South 448 516 35,100  Level Jacksonville Center
Mon 11:25:49 AM 29.2567 -81.9525 172° South 448 516 35,100  Level Jacksonville Center
Mon 11:26:49 AM 29.1481 -81.9250 168° South 448 516 35,100 -500 Level Jacksonville Center
Mon 11:27:49 AM 29.0247 -81.8975 169° South 448 516 34,100 -950 Descending Jacksonville Center
Mon 11:28:49 AM 28.8908 -81.8728 171° South 448 516 33,200 -1,568 Descending Jacksonville Center
Mon 11:31:08 AM 28.6319 -81.8250 171° South 433 498 28,900 -1,869 Descending Miami Center
Mon 11:32:08 AM 28.5181 -81.8011 170° South 423 487 27,000 -1,350 Descending Miami Center
Mon 11:33:08 AM 28.4044 -81.7678 166° South 423 487 26,200 -1,100 Descending Miami Center
Mon 11:34:08 AM 28.2908 -81.7344 166° South 428 493 24,800 -1,100 Descending Miami Center
Mon 11:35:08 AM 28.1794 -81.7014 165° South 428 493 24,000 -900 Descending Miami Center
Mon 11:36:08 AM 28.0739 -81.6711 166° South 415 478 23,000 -1,150 Descending Miami Center
Mon 11:37:08 AM 27.9650 -81.6875 188° South 390 449 21,700 -1,350 Descending Miami Center
Mon 11:38:08 AM 27.8614 -81.6667 170° South 385 443 20,300 -1,500 Descending Miami Center
Mon 11:39:08 AM 27.7433 -81.6406 169° South 391 450 18,700 -1,400 Descending Miami Center
Mon 11:40:08 AM 27.6397 -81.6175 169° South 391 450 17,500 -1,300 Descending Miami Center
Mon 11:41:08 AM 27.5358 -81.5967 170° South 391 450 16,100 -1,400 Descending Miami Center
Mon 11:42:08 AM 27.4281 -81.5736 169° South 391 450 14,700 -1,400 Descending Miami Center
Mon 11:43:08 AM 27.3286 -81.5531 170° South 384 442 13,300 -1,400 Descending Miami Center
Mon 11:44:08 AM 27.2272 -81.5303 169° South 379 436 11,900 -1,450 Descending Miami Center
Mon 11:45:08 AM 27.1294 -81.5125 171° South 373 429 10,400 -950 Descending Miami Center
Mon 11:46:08 AM 27.0342 -81.4900 168° South 367 422 10,000 -200 Descending Miami Center
Mon 11:47:08 AM 26.9539 -81.4564 160° South 358 412 10,000  Level Miami Center
Mon 11:48:08 AM 26.8656 -81.4111 155° Southeast 353 406 10,000  Level Miami Center
Mon 11:49:08 AM 26.7667 -81.3656 158° South 348 400 10,000 5,667 Level Miami Center
Mon 11:51:08 AM 26.6933 -81.3789 189° South 348 400 27,000 5,667 Climbing Miami Center
Mon 11:52:08 AM 26.5969 -81.3844 183° South 348 400 27,000  Level Miami Center
Mon 11:53:08 AM 26.5400 -81.4753 235° Southwest 348 400 27,000 -10,950 Level Miami Center
Mon 11:54:08 AM 26.3925 -81.4531 172° South 365 420 5,100 -21,900 Descending Miami Center
Mon 11:56:00 AM 26.2494 -81.5679 241° Southwest  Level FlightAware Approximate
Mon 12:03:00 PM 26.1500 -81.7667 246° West  Level FlightAware Approximate
Mon 12:04:00 PM 26.1524 -81.7756 246° West  Level Estimated
Mon 12:05:00 PM 26.1524 -81.7756 246° West  Level Estimated
Mon 12:06:00 PM 26.1524 -81.7756 246° West  Level Estimated
Mon 12:07:00 PM 26.1524 -81.7756 246° West  Level Estimated
Mon 12:08:00 PM 26.1524 -81.7756 246° West  Level Estimated
Mon 12:09:00 PM 26.1524 -81.7756 246° West  Level Estimated
Mon 12:10:00 PM 26.1524 -81.7756 246° West  Level Estimated
Mon 12:11:00 PM 26.1524 -81.7756 246° West  Level Estimated
Mon 12:12:00 PM 26.1524 -81.7756 246° West  Level Estimated
Mon 12:13:00 PM 26.1524 -81.7756 246° West  Level Estimated

Login

Don't have an account? Register now (free) for customized features, flight alerts, and more!